createdAt,value
2019-05-03T00:02:28.706Z,79.04
2019-05-03T00:05:25.021Z,79.01
2019-05-03T00:08:03.653Z,78.96
2019-05-03T00:10:33.839Z,78.94
2019-05-03T00:13:04.274Z,78.95
2019-05-03T00:15:57.973Z,79.11
2019-05-03T00:18:27.923Z,78.97
2019-05-03T00:21:02.038Z,78.88
2019-05-03T00:23:32.432Z,79.03
2019-05-03T00:26:02.774Z,79.04
2019-05-03T00:28:32.754Z,78.96
2019-05-03T00:31:02.572Z,79.17
2019-05-03T00:33:32.340Z,79.09
2019-05-03T00:36:22.179Z,78.78
2019-05-03T00:38:53.775Z,78.51
2019-05-03T00:41:23.571Z,78.63
2019-05-03T00:43:53.547Z,78.58
2019-05-03T00:46:23.360Z,78.52
2019-05-03T00:48:54.072Z,78.53
2019-05-03T00:51:23.867Z,78.24
2019-05-03T00:53:53.627Z,78.25
2019-05-03T00:56:23.310Z,78.28
2019-05-03T00:58:56.538Z,78.21
2019-05-03T01:01:26.292Z,77.93
2019-05-03T01:03:56.079Z,77.61
2019-05-03T01:06:25.912Z,77.58
2019-05-03T01:08:55.624Z,77.59
2019-05-03T01:11:25.422Z,77.51
2019-05-03T01:13:55.334Z,77.37
2019-05-03T01:16:25.722Z,77.37
2019-05-03T01:18:55.721Z,77.48
2019-05-03T01:21:25.446Z,77.57
2019-05-03T01:23:55.254Z,77.54
2019-05-03T01:26:24.986Z,77.56
2019-05-03T01:28:54.747Z,77.56
2019-05-03T01:31:24.537Z,77.50
2019-05-03T01:33:54.324Z,77.38
2019-05-03T01:36:24.200Z,77.45
2019-05-03T01:38:53.933Z,77.21
2019-05-03T01:41:23.973Z,77.20
2019-05-03T01:43:53.703Z,77.01
2019-05-03T01:46:23.687Z,77.11
2019-05-03T01:49:08.985Z,77.41
2019-05-03T01:51:52.642Z,77.11
2019-05-03T01:54:22.902Z,77.14
2019-05-03T01:56:58.856Z,77.00
2019-05-03T01:59:24.088Z,77.14
2019-05-03T02:02:25.068Z,77.47
2019-05-03T02:05:13.286Z,77.40
2019-05-03T02:07:43.014Z,76.87
2019-05-03T02:10:13.118Z,76.47
2019-05-03T02:12:42.840Z,76.16
2019-05-03T02:15:13.615Z,75.92
2019-05-03T02:17:43.319Z,75.95
2019-05-03T02:20:13.133Z,76.19
2019-05-03T02:22:42.980Z,76.06
2019-05-03T02:25:12.800Z,75.84
2019-05-03T02:27:42.542Z,75.26
2019-05-03T02:30:14.296Z,75.00
2019-05-03T02:32:44.441Z,74.86
2019-05-03T02:35:14.559Z,74.99
2019-05-03T02:37:46.618Z,74.91
2019-05-03T02:40:20.209Z,75.17
2019-05-03T02:43:06.826Z,75.43
2019-05-03T02:45:45.536Z,74.98
2019-05-03T02:48:25.539Z,74.36
2019-05-03T02:50:56.132Z,74.23
2019-05-03T02:53:26.283Z,74.11
2019-05-03T02:56:01.358Z,74.00
2019-05-03T02:58:27.461Z,73.37
2019-05-03T03:00:59.833Z,73.20
2019-05-03T03:03:30.218Z,72.96
2019-05-03T03:06:01.912Z,73.08
2019-05-03T03:08:45.462Z,72.57
2019-05-03T03:11:17.553Z,72.54
2019-05-03T03:13:48.233Z,72.56
2019-05-03T03:16:20.569Z,72.52
2019-05-03T03:18:52.492Z,72.59
2019-05-03T03:21:26.055Z,72.53
2019-05-03T03:24:08.051Z,72.75
2019-05-03T03:26:43.321Z,73.01
2019-05-03T03:29:12.503Z,72.30
2019-05-03T03:32:19.334Z,72.62
2019-05-03T03:35:20.159Z,72.43
2019-05-03T03:37:46.352Z,72.36
2019-05-03T03:40:17.948Z,72.48
2019-05-03T03:42:50.726Z,72.64
2019-05-03T03:45:20.528Z,72.72
2019-05-03T03:47:56.296Z,72.41
2019-05-03T03:50:27.272Z,72.45
2019-05-03T03:52:58.650Z,72.00
2019-05-03T03:55:31.803Z,72.13
2019-05-03T03:58:01.991Z,72.27
2019-05-03T04:00:31.977Z,71.95
2019-05-03T04:03:01.908Z,71.98
2019-05-03T04:05:31.880Z,71.88
2019-05-03T04:08:01.846Z,71.99
2019-05-03T04:10:31.729Z,71.97
2019-05-03T04:13:02.132Z,72.04
2019-05-03T04:15:46.170Z,72.07
2019-05-03T04:18:25.774Z,72.12
2019-05-03T04:20:56.076Z,71.72
2019-05-03T04:23:26.331Z,71.74
2019-05-03T04:25:56.584Z,71.76
2019-05-03T04:28:26.346Z,71.90
2019-05-03T04:30:55.419Z,71.70
2019-05-03T04:33:27.093Z,71.66
2019-05-03T04:35:57.036Z,71.57
2019-05-03T04:38:26.769Z,71.61
2019-05-03T04:40:56.479Z,71.69
2019-05-03T04:43:26.758Z,71.50
2019-05-03T04:46:09.638Z,71.53
2019-05-03T04:48:39.358Z,71.45
2019-05-03T04:51:09.071Z,71.68
2019-05-03T04:53:45.476Z,71.76
2019-05-03T04:56:16.970Z,71.91
2019-05-03T04:58:46.096Z,71.85
2019-05-03T05:01:16.053Z,71.88
2019-05-03T05:03:45.853Z,71.15
2019-05-03T05:06:15.776Z,70.78
2019-05-03T05:08:46.110Z,70.93
2019-05-03T05:11:16.865Z,70.67
2019-05-03T05:13:46.881Z,70.50
2019-05-03T05:16:16.562Z,70.68
2019-05-03T05:18:51.008Z,70.47
2019-05-03T05:21:48.949Z,70.35
2019-05-03T05:24:18.969Z,70.25
2019-05-03T05:26:57.721Z,69.75
2019-05-03T05:29:29.303Z,68.75
2019-05-03T05:31:59.047Z,69.31
2019-05-03T05:34:29.004Z,69.37
2019-05-03T05:36:58.659Z,69.18
2019-05-03T05:39:28.332Z,69.24
2019-05-03T05:41:57.990Z,69.30
2019-05-03T05:44:27.734Z,69.27
2019-05-03T05:47:14.894Z,68.80
2019-05-03T05:50:06.284Z,68.52
2019-05-03T05:52:35.975Z,68.79
2019-05-03T05:55:25.297Z,68.44
2019-05-03T05:58:05.401Z,67.84
2019-05-03T06:00:40.158Z,67.65
2019-05-03T06:03:08.454Z,67.58
2019-05-03T06:05:36.740Z,67.42
2019-05-03T06:08:30.087Z,67.00
2019-05-03T06:11:05.921Z,67.22
2019-05-03T06:13:56.233Z,66.58
2019-05-03T06:16:35.218Z,65.17
2019-05-03T06:19:08.871Z,64.71
2019-05-03T06:21:44.434Z,64.25
2019-05-03T06:24:18.211Z,62.85
2019-05-03T06:26:56.985Z,62.79
2019-05-03T06:29:26.931Z,61.89
2019-05-03T06:32:25.368Z,61.49
2019-05-03T06:34:55.176Z,59.69
2019-05-03T06:37:26.852Z,59.68
2019-05-03T06:39:56.641Z,58.94
2019-05-03T06:42:26.297Z,59.52
2019-05-03T06:44:59.744Z,58.55
2019-05-03T06:47:29.976Z,58.10
2019-05-03T06:50:00.664Z,57.67
2019-05-03T06:52:30.324Z,57.61
2019-05-03T06:55:04.978Z,55.54
2019-05-03T06:57:32.741Z,54.16
2019-05-03T07:00:20.462Z,54.56
2019-05-03T07:02:58.972Z,54.32
2019-05-03T07:05:47.696Z,54.45
2019-05-03T07:08:39.093Z,53.80
2019-05-03T07:11:08.824Z,53.03
2019-05-03T07:13:38.501Z,53.48
2019-05-03T07:16:08.257Z,52.60
2019-05-03T07:18:37.936Z,52.37
2019-05-03T07:21:07.613Z,52.03
2019-05-03T07:23:37.356Z,53.01
2019-05-03T07:26:07.029Z,51.86
2019-05-03T07:28:46.222Z,53.27
2019-05-03T07:31:08.160Z,52.99
2019-05-03T07:33:37.834Z,52.11
2019-05-03T07:36:07.739Z,52.62
2019-05-03T07:38:37.414Z,52.27
2019-05-03T07:41:07.081Z,52.39
2019-05-03T07:43:36.840Z,50.91
2019-05-03T07:46:06.598Z,50.70
2019-05-03T07:48:36.288Z,49.78
2019-05-03T07:51:06.025Z,49.59
2019-05-03T07:53:35.720Z,49.81
2019-05-03T07:56:09.900Z,50.13
2019-05-03T07:58:41.148Z,48.90
2019-05-03T08:01:16.092Z,48.81
2019-05-03T08:03:47.026Z,48.23
2019-05-03T08:06:16.708Z,48.35
2019-05-03T08:08:46.710Z,47.88
2019-05-03T08:11:16.383Z,47.99
2019-05-03T08:13:46.079Z,47.42
2019-05-03T08:16:16.125Z,48.36
2019-05-03T08:18:46.095Z,48.75
2019-05-03T08:21:15.765Z,48.94
2019-05-03T08:23:45.496Z,49.18
2019-05-03T08:26:15.460Z,48.01
2019-05-03T08:28:45.156Z,47.45
2019-05-03T08:31:35.409Z,48.22
2019-05-03T08:34:15.331Z,47.44
2019-05-03T08:36:59.613Z,47.26
2019-05-03T08:39:29.383Z,46.47
2019-05-03T08:42:00.953Z,46.12
2019-05-03T08:44:30.659Z,46.41
2019-05-03T08:47:00.476Z,45.59
2019-05-03T08:49:30.195Z,45.51
2019-05-03T08:51:59.864Z,45.41
2019-05-03T08:54:29.556Z,46.04
2019-05-03T08:56:59.215Z,46.71
2019-05-03T08:59:32.605Z,46.63
2019-05-03T09:02:03.634Z,46.73
2019-05-03T09:04:37.529Z,47.35
2019-05-03T09:07:05.357Z,47.28
2019-05-03T09:09:47.319Z,46.47
2019-05-03T09:12:17.069Z,46.34
2019-05-03T09:14:48.514Z,45.72
2019-05-03T09:17:18.295Z,45.52
2019-05-03T09:19:48.033Z,45.48
2019-05-03T09:22:17.721Z,45.79
2019-05-03T09:24:47.392Z,45.87
2019-05-03T09:27:17.137Z,44.31
2019-05-03T09:29:46.814Z,44.77
2019-05-03T09:32:16.580Z,44.43
2019-05-03T09:34:47.349Z,44.04
2019-05-03T09:37:17.029Z,41.82
2019-05-03T09:39:46.696Z,40.82
2019-05-03T09:42:16.606Z,39.73
2019-05-03T09:44:46.293Z,39.64
2019-05-03T09:47:15.955Z,39.40
2019-05-03T09:49:45.628Z,39.09
2019-05-03T09:52:16.094Z,38.91
2019-05-03T09:54:54.654Z,39.59
2019-05-03T09:57:24.775Z,40.33
2019-05-03T09:59:59.784Z,40.91
2019-05-03T10:02:25.927Z,41.00
2019-05-03T10:04:55.599Z,40.52
2019-05-03T10:07:25.895Z,40.70
2019-05-03T10:09:55.723Z,40.72
2019-05-03T10:12:25.770Z,41.55
2019-05-03T10:14:56.438Z,41.42
2019-05-03T10:17:51.259Z,42.24
2019-05-03T10:20:25.022Z,42.45
2019-05-03T10:22:56.297Z,42.64
2019-05-03T10:25:25.961Z,42.18
2019-05-03T10:27:55.731Z,41.24
2019-05-03T10:30:28.496Z,41.33
2019-05-03T10:33:15.637Z,39.86
2019-05-03T10:35:45.379Z,39.96
2019-05-03T10:38:16.358Z,39.30
2019-05-03T10:40:46.213Z,38.91
2019-05-03T10:43:15.969Z,39.48
2019-05-03T10:45:45.905Z,39.45
2019-05-03T10:48:16.036Z,40.33
2019-05-03T10:50:45.705Z,40.34
2019-05-03T10:53:22.420Z,40.48
2019-05-03T10:56:22.853Z,39.87
2019-05-03T10:58:54.959Z,38.95
2019-05-03T11:01:35.722Z,39.30
2019-05-03T11:04:06.366Z,39.76
2019-05-03T11:06:37.022Z,40.87
2019-05-03T11:09:07.856Z,39.68
2019-05-03T11:11:37.992Z,39.22
2019-05-03T11:14:07.676Z,40.07
2019-05-03T11:16:37.352Z,39.56
2019-05-03T11:19:07.103Z,40.54
2019-05-03T11:21:36.776Z,40.46
2019-05-03T11:24:06.600Z,40.46
2019-05-03T11:26:36.561Z,40.89
2019-05-03T11:29:06.466Z,41.18
2019-05-03T11:31:57.949Z,39.76
2019-05-03T11:34:32.640Z,39.71
2019-05-03T11:37:39.484Z,39.85
2019-05-03T11:40:10.112Z,39.34
2019-05-03T11:42:39.773Z,39.95
2019-05-03T11:45:09.703Z,40.27
2019-05-03T11:47:39.393Z,40.35
2019-05-03T11:50:09.142Z,40.75
2019-05-03T11:52:38.821Z,42.36
2019-05-03T11:55:11.488Z,42.36
2019-05-03T11:57:40.078Z,41.44
2019-05-03T12:00:09.742Z,41.84
2019-05-03T12:02:59.845Z,42.30
2019-05-03T12:05:28.892Z,41.98
2019-05-03T12:07:57.172Z,42.43
2019-05-03T12:10:45.746Z,42.42
2019-05-03T12:13:06.114Z,42.82
2019-05-03T12:15:36.044Z,43.33
2019-05-03T12:18:08.470Z,41.84
2019-05-03T12:20:40.750Z,39.27
2019-05-03T12:23:12.133Z,39.27
2019-05-03T12:25:44.926Z,38.74
2019-05-03T12:28:15.315Z,38.04
2019-05-03T12:30:45.081Z,37.43
2019-05-03T12:33:15.336Z,37.64
2019-05-03T12:35:46.152Z,38.12
2019-05-03T12:38:16.604Z,38.48
2019-05-03T12:40:46.474Z,38.92
2019-05-03T12:43:16.153Z,38.14
2019-05-03T12:45:45.829Z,39.11
2019-05-03T12:48:15.650Z,39.50
2019-05-03T12:50:46.738Z,37.38
2019-05-03T12:53:16.639Z,36.64
2019-05-03T12:55:46.309Z,36.81
2019-05-03T12:58:15.980Z,36.09
2019-05-03T13:00:59.879Z,36.21
2019-05-03T13:03:45.733Z,36.42
2019-05-03T13:06:15.501Z,37.18
2019-05-03T13:08:46.316Z,37.37
2019-05-03T13:11:16.280Z,36.90
2019-05-03T13:13:45.961Z,36.74
2019-05-03T13:16:18.737Z,36.26
2019-05-03T13:18:48.558Z,36.36
2019-05-03T13:21:18.324Z,35.17
2019-05-03T13:23:47.992Z,35.46
2019-05-03T13:26:17.697Z,35.24
2019-05-03T13:28:47.379Z,35.11
2019-05-03T13:31:17.048Z,34.62
2019-05-03T13:33:46.781Z,34.90
2019-05-03T13:36:16.449Z,35.23
2019-05-03T13:38:46.139Z,33.45
2019-05-03T13:41:15.823Z,33.45
2019-05-03T13:43:45.628Z,34.30
2019-05-03T13:46:15.743Z,34.47
2019-05-03T13:48:48.844Z,35.46
2019-05-03T13:51:16.988Z,34.88
2019-05-03T13:53:46.681Z,35.13
2019-05-03T13:56:16.437Z,35.89
2019-05-03T13:58:46.269Z,35.87
2019-05-03T14:01:15.949Z,35.86
2019-05-03T14:03:45.658Z,36.56
2019-05-03T14:06:15.351Z,36.67
2019-05-03T14:08:45.577Z,37.17
2019-05-03T14:11:15.634Z,36.11
2019-05-03T14:13:45.339Z,36.36
2019-05-03T14:16:15.026Z,36.11
2019-05-03T14:18:47.270Z,36.00
2019-05-03T14:24:11.059Z,36.92
2019-05-03T14:26:41.955Z,37.33
2019-05-03T14:29:11.729Z,37.61
2019-05-03T14:31:41.667Z,38.01
2019-05-03T14:34:11.393Z,38.60
2019-05-03T14:36:41.090Z,39.03
2019-05-03T14:39:10.983Z,39.69
2019-05-03T14:41:40.735Z,40.16
2019-05-03T14:44:10.566Z,40.16
2019-05-03T14:46:40.427Z,40.47
2019-05-03T14:49:10.198Z,40.64
2019-05-03T14:51:39.896Z,40.87
2019-05-03T14:54:10.187Z,41.10
2019-05-03T14:56:46.171Z,41.81
2019-05-03T14:59:37.753Z,41.95
2019-05-03T15:02:15.416Z,42.27
2019-05-03T15:04:44.394Z,42.20
2019-05-03T15:07:15.351Z,42.20
2019-05-03T15:09:46.257Z,42.43
2019-05-03T15:12:15.950Z,42.88
2019-05-03T15:14:45.611Z,43.56
2019-05-03T15:17:15.300Z,43.89
2019-05-03T15:19:45.473Z,43.45
2019-05-03T15:22:15.163Z,43.88
2019-05-03T15:24:45.168Z,44.33
2019-05-03T15:27:14.842Z,44.20
2019-05-03T15:29:44.855Z,44.05
2019-05-03T15:32:15.526Z,43.67
2019-05-03T15:34:46.362Z,43.82
2019-05-03T15:37:16.061Z,43.82
2019-05-03T15:39:45.783Z,43.92
2019-05-03T15:42:17.291Z,43.71
2019-05-03T15:45:09.365Z,44.39
2019-05-03T15:47:43.081Z,43.55
2019-05-03T15:50:15.486Z,43.57
2019-05-03T15:52:45.183Z,44.06
2019-05-03T15:55:15.288Z,44.73
2019-05-03T15:57:44.917Z,45.17
2019-05-03T16:00:16.045Z,45.33
2019-05-03T16:02:45.797Z,45.18
2019-05-03T16:05:15.673Z,45.62
2019-05-03T16:07:45.334Z,45.90
2019-05-03T16:10:15.459Z,45.58
2019-05-03T16:12:45.160Z,46.08
2019-05-03T16:15:14.990Z,46.44
2019-05-03T16:17:44.985Z,46.97
2019-05-03T16:20:14.770Z,46.92
2019-05-03T16:22:44.975Z,47.31
2019-05-03T16:25:16.297Z,47.61
2019-05-03T16:27:57.880Z,47.39
2019-05-03T16:30:40.494Z,47.18
2019-05-03T16:33:24.018Z,46.06
2019-05-03T16:35:41.857Z,45.32
2019-05-03T16:38:11.685Z,45.30
2019-05-03T16:40:39.981Z,44.98
2019-05-03T16:43:09.948Z,45.30
2019-05-03T16:45:39.861Z,45.80
2019-05-03T16:48:09.624Z,46.36
2019-05-03T16:50:39.539Z,47.06
2019-05-03T16:53:09.808Z,47.64
2019-05-03T16:55:39.487Z,48.07
2019-05-03T16:58:09.254Z,48.46
2019-05-03T17:00:38.924Z,48.70
2019-05-03T17:03:08.610Z,49.13
2019-05-03T17:05:48.969Z,48.87
2019-05-03T17:08:36.417Z,49.21
2019-05-03T17:11:08.374Z,49.18
2019-05-03T17:13:38.400Z,49.56
2019-05-03T17:16:08.280Z,49.11
2019-05-03T17:18:38.022Z,49.15
2019-05-03T17:21:07.781Z,49.11
2019-05-03T17:23:37.489Z,49.46
2019-05-03T17:26:07.170Z,49.24
2019-05-03T17:28:36.931Z,49.42
2019-05-03T17:31:06.680Z,49.27
2019-05-03T17:33:36.434Z,49.26
2019-05-03T17:36:06.123Z,48.98
2019-05-03T17:38:35.804Z,48.75
2019-05-03T17:41:38.015Z,48.87
2019-05-03T17:44:15.025Z,47.42
2019-05-03T17:46:45.361Z,47.99
2019-05-03T17:49:15.086Z,48.81
2019-05-03T17:52:21.959Z,49.37
2019-05-03T17:55:09.869Z,49.63
2019-05-03T17:57:55.174Z,50.22
2019-05-03T18:00:44.350Z,51.99
2019-05-03T18:03:16.277Z,53.24
2019-05-03T18:05:51.297Z,54.87
2019-05-03T18:08:38.713Z,55.85
2019-05-03T18:11:10.469Z,56.47
2019-05-03T18:13:40.451Z,55.70
2019-05-03T18:16:10.180Z,55.59
2019-05-03T18:18:39.864Z,55.43
2019-05-03T18:21:09.559Z,55.70
2019-05-03T18:23:39.246Z,55.87
2019-05-03T18:26:08.948Z,55.73
2019-05-03T18:28:38.750Z,55.73
2019-05-03T18:31:08.915Z,55.37
2019-05-03T18:33:38.912Z,55.49
2019-05-03T18:36:09.555Z,56.17
2019-05-03T18:38:39.868Z,57.85
2019-05-03T18:41:11.375Z,58.17
2019-05-03T18:44:05.083Z,59.09
2019-05-03T18:46:40.183Z,59.76
2019-05-03T18:49:09.874Z,60.97
2019-05-03T18:51:39.718Z,61.96
2019-05-03T18:54:09.393Z,62.59
2019-05-03T18:56:39.080Z,63.09
2019-05-03T18:59:08.846Z,63.65
2019-05-03T19:01:38.774Z,64.11
2019-05-03T19:04:34.729Z,64.93
2019-05-03T19:07:04.664Z,65.23
2019-05-03T19:09:41.679Z,65.32
2019-05-03T19:12:20.542Z,65.82
2019-05-03T19:14:50.228Z,66.39
2019-05-03T19:17:32.036Z,66.39
2019-05-03T19:20:01.815Z,66.49
2019-05-03T19:22:34.317Z,66.75
2019-05-03T19:25:05.786Z,66.38
2019-05-03T19:27:35.587Z,66.86
2019-05-03T19:30:05.869Z,66.84
2019-05-03T19:32:36.687Z,67.48
2019-05-03T19:35:07.052Z,68.21
2019-05-03T19:37:36.803Z,70.14
2019-05-03T19:40:07.984Z,71.02
2019-05-03T19:42:37.666Z,72.56
2019-05-03T19:45:07.608Z,72.88
2019-05-03T19:47:37.366Z,72.91
2019-05-03T19:50:07.515Z,74.36
2019-05-03T19:52:57.831Z,74.90
2019-05-03T19:55:27.570Z,74.73
2019-05-03T19:57:58.213Z,74.62
2019-05-03T20:00:34.839Z,74.71
2019-05-03T20:03:10.896Z,74.60
2019-05-03T20:05:47.075Z,74.58
2019-05-03T20:08:30.142Z,74.49
2019-05-03T20:11:15.702Z,74.72
2019-05-03T20:13:46.381Z,74.61
2019-05-03T20:16:16.207Z,74.85
2019-05-03T20:18:45.901Z,75.24
2019-05-03T20:21:15.902Z,75.29
2019-05-03T20:23:47.084Z,75.67
2019-05-03T20:26:17.001Z,75.60
2019-05-03T20:28:46.654Z,75.58
2019-05-03T20:31:16.591Z,75.64
2019-05-03T20:33:47.230Z,75.89
2019-05-03T20:36:16.891Z,75.84
2019-05-03T20:38:46.565Z,75.69
2019-05-03T20:41:16.235Z,75.94
2019-05-03T20:44:08.359Z,75.78
2019-05-03T20:46:42.303Z,75.37
2019-05-03T20:49:12.618Z,75.77
2019-05-03T20:51:42.315Z,75.62
2019-05-03T20:54:12.021Z,76.27
2019-05-03T20:56:41.736Z,75.43
2019-05-03T20:59:11.799Z,75.51
2019-05-03T21:01:41.531Z,75.05
2019-05-03T21:04:11.297Z,74.99
2019-05-03T21:06:41.056Z,75.37
2019-05-03T21:09:10.989Z,75.14
2019-05-03T21:11:41.613Z,74.86
2019-05-03T21:14:11.391Z,75.17
2019-05-03T21:17:00.097Z,75.03
2019-05-03T21:19:39.841Z,75.44
2019-05-03T21:22:17.092Z,75.80
2019-05-03T21:25:14.971Z,75.65
2019-05-03T21:27:44.965Z,75.76
2019-05-03T21:30:15.151Z,75.54
2019-05-03T21:32:44.894Z,75.88
2019-05-03T21:35:14.862Z,76.13
2019-05-03T21:37:45.406Z,76.16
2019-05-03T21:40:15.631Z,76.21
2019-05-03T21:42:45.678Z,76.13
2019-05-03T21:45:17.143Z,76.26
2019-05-03T21:47:54.911Z,76.17
2019-05-03T21:50:25.109Z,75.85
2019-05-03T21:52:57.907Z,75.56
2019-05-03T21:55:27.578Z,75.54
2019-05-03T21:57:57.254Z,75.40
2019-05-03T22:00:28.707Z,75.50
2019-05-03T22:03:00.056Z,75.26
2019-05-03T22:05:29.740Z,75.48
2019-05-03T22:07:59.398Z,75.59
2019-05-03T22:10:29.064Z,75.36
2019-05-03T22:12:58.736Z,75.12
2019-05-03T22:15:36.174Z,75.21
2019-05-03T22:18:24.708Z,74.97
2019-05-03T22:21:02.627Z,74.84
2019-05-03T22:23:47.040Z,74.43
2019-05-03T22:26:16.792Z,74.12
2019-05-03T22:28:46.468Z,74.42
2019-05-03T22:31:16.160Z,74.38
2019-05-03T22:33:46.828Z,74.39
2019-05-03T22:36:16.527Z,74.34
2019-05-03T22:38:46.199Z,74.52
2019-05-03T22:41:15.984Z,74.66
2019-05-03T22:43:45.751Z,74.52
2019-05-03T22:46:15.428Z,74.74
2019-05-03T22:48:46.617Z,75.05
2019-05-03T22:51:16.325Z,75.30
2019-05-03T22:53:46.000Z,75.00
2019-05-03T22:56:15.731Z,75.04
2019-05-03T22:58:45.757Z,75.05
2019-05-03T23:01:16.625Z,75.36
2019-05-03T23:03:46.348Z,75.50
2019-05-03T23:06:22.045Z,75.48
2019-05-03T23:08:47.440Z,75.47
2019-05-03T23:11:17.203Z,75.68
2019-05-03T23:14:01.454Z,75.59
2019-05-03T23:16:35.423Z,75.59
2019-05-03T23:19:05.707Z,75.61
2019-05-03T23:21:49.673Z,75.87
2019-05-03T23:24:19.402Z,75.79
2019-05-03T23:26:49.065Z,75.95
2019-05-03T23:29:18.914Z,75.80
2019-05-03T23:31:48.803Z,75.89
2019-05-03T23:34:18.552Z,75.88
2019-05-03T23:36:48.303Z,75.64
2019-05-03T23:39:17.987Z,75.81
2019-05-03T23:41:47.650Z,76.15
2019-05-03T23:44:17.313Z,76.29
2019-05-03T23:47:08.917Z,76.35
2019-05-03T23:49:38.572Z,76.48
2019-05-03T23:52:25.926Z,76.52
2019-05-03T23:54:56.691Z,76.53
2019-05-03T23:57:26.354Z,76.71
2019-05-03T23:59:57.663Z,76.99
